sensor_id;sensor_type;location;lat;lon;timestamp;P1;durP1;ratioP1;P2;durP2;ratioP2
3293;SDS011;1659;51.470;6.770;2023-02-15T00:00:01;49.17;;;25.60;;
3293;SDS011;1659;51.470;6.770;2023-02-15T00:02:27;50.27;;;25.20;;
3293;SDS011;1659;51.470;6.770;2023-02-15T00:04:54;54.23;;;26.93;;
3293;SDS011;1659;51.470;6.770;2023-02-15T00:07:21;51.13;;;26.23;;
3293;SDS011;1659;51.470;6.770;2023-02-15T00:09:47;55.07;;;26.77;;
3293;SDS011;1659;51.470;6.770;2023-02-15T00:12:16;57.23;;;27.07;;
3293;SDS011;1659;51.470;6.770;2023-02-15T00:14:42;57.43;;;25.80;;
3293;SDS011;1659;51.470;6.770;2023-02-15T00:17:09;50.33;;;25.57;;
3293;SDS011;1659;51.470;6.770;2023-02-15T00:19:36;51.47;;;26.27;;
3293;SDS011;1659;51.470;6.770;2023-02-15T00:22:02;59.50;;;28.50;;
3293;SDS011;1659;51.470;6.770;2023-02-15T00:24:29;51.40;;;25.97;;
3293;SDS011;1659;51.470;6.770;2023-02-15T00:26:55;50.33;;;26.07;;
3293;SDS011;1659;51.470;6.770;2023-02-15T00:29:24;45.63;;;25.57;;
3293;SDS011;1659;51.470;6.770;2023-02-15T00:31:50;49.93;;;24.67;;
3293;SDS011;1659;51.470;6.770;2023-02-15T00:34:18;50.57;;;28.47;;
3293;SDS011;1659;51.470;6.770;2023-02-15T00:36:46;54.40;;;26.00;;
3293;SDS011;1659;51.470;6.770;2023-02-15T00:39:13;45.70;;;24.97;;
3293;SDS011;1659;51.470;6.770;2023-02-15T00:41:40;47.97;;;26.30;;
3293;SDS011;1659;51.470;6.770;2023-02-15T00:44:06;50.97;;;27.37;;
3293;SDS011;1659;51.470;6.770;2023-02-15T00:46:34;49.50;;;25.03;;
3293;SDS011;1659;51.470;6.770;2023-02-15T00:49:02;51.70;;;26.10;;
3293;SDS011;1659;51.470;6.770;2023-02-15T00:51:30;60.80;;;27.30;;
3293;SDS011;1659;51.470;6.770;2023-02-15T00:53:57;55.00;;;25.70;;
3293;SDS011;1659;51.470;6.770;2023-02-15T00:56:24;50.00;;;26.83;;
3293;SDS011;1659;51.470;6.770;2023-02-15T00:58:50;51.27;;;25.17;;
3293;SDS011;1659;51.470;6.770;2023-02-15T01:01:17;50.53;;;27.10;;
3293;SDS011;1659;51.470;6.770;2023-02-15T01:03:47;54.63;;;25.30;;
3293;SDS011;1659;51.470;6.770;2023-02-15T01:06:14;46.13;;;25.97;;
3293;SDS011;1659;51.470;6.770;2023-02-15T01:08:41;55.60;;;26.30;;
3293;SDS011;1659;51.470;6.770;2023-02-15T01:11:09;59.57;;;28.17;;
3293;SDS011;1659;51.470;6.770;2023-02-15T01:13:37;43.73;;;24.13;;
3293;SDS011;1659;51.470;6.770;2023-02-15T01:16:04;55.13;;;26.30;;
3293;SDS011;1659;51.470;6.770;2023-02-15T01:18:30;58.30;;;27.60;;
3293;SDS011;1659;51.470;6.770;2023-02-15T01:20:59;50.60;;;25.43;;
3293;SDS011;1659;51.470;6.770;2023-02-15T01:23:26;53.97;;;25.90;;
3293;SDS011;1659;51.470;6.770;2023-02-15T01:25:52;59.43;;;27.40;;
3293;SDS011;1659;51.470;6.770;2023-02-15T01:28:19;59.70;;;25.10;;
3293;SDS011;1659;51.470;6.770;2023-02-15T01:30:45;58.37;;;25.60;;
3293;SDS011;1659;51.470;6.770;2023-02-15T01:33:12;54.17;;;26.40;;
3293;SDS011;1659;51.470;6.770;2023-02-15T01:35:42;51.50;;;26.70;;
3293;SDS011;1659;51.470;6.770;2023-02-15T01:38:11;64.47;;;28.90;;
3293;SDS011;1659;51.470;6.770;2023-02-15T01:40:39;52.70;;;27.50;;
3293;SDS011;1659;51.470;6.770;2023-02-15T01:43:09;71.30;;;29.07;;
3293;SDS011;1659;51.470;6.770;2023-02-15T01:45:37;61.63;;;29.80;;
3293;SDS011;1659;51.470;6.770;2023-02-15T01:48:05;60.17;;;28.20;;
3293;SDS011;1659;51.470;6.770;2023-02-15T01:50:39;58.53;;;27.50;;
3293;SDS011;1659;51.470;6.770;2023-02-15T01:53:09;65.80;;;28.90;;
3293;SDS011;1659;51.470;6.770;2023-02-15T01:55:43;56.20;;;29.37;;
3293;SDS011;1659;51.470;6.770;2023-02-15T01:58:13;56.83;;;28.53;;
3293;SDS011;1659;51.470;6.770;2023-02-15T02:00:40;66.50;;;29.50;;
3293;SDS011;1659;51.470;6.770;2023-02-15T02:03:07;63.57;;;28.33;;
3293;SDS011;1659;51.470;6.770;2023-02-15T02:05:34;59.07;;;28.43;;
3293;SDS011;1659;51.470;6.770;2023-02-15T02:08:01;58.87;;;29.77;;
3293;SDS011;1659;51.470;6.770;2023-02-15T02:10:29;53.13;;;27.10;;
3293;SDS011;1659;51.470;6.770;2023-02-15T02:12:57;53.80;;;26.57;;
3293;SDS011;1659;51.470;6.770;2023-02-15T02:15:28;58.07;;;27.37;;
3293;SDS011;1659;51.470;6.770;2023-02-15T02:18:03;57.07;;;27.90;;
3293;SDS011;1659;51.470;6.770;2023-02-15T02:20:58;52.57;;;27.20;;
3293;SDS011;1659;51.470;6.770;2023-02-15T02:23:39;54.17;;;27.60;;
3293;SDS011;1659;51.470;6.770;2023-02-15T02:26:38;54.80;;;27.00;;
3293;SDS011;1659;51.470;6.770;2023-02-15T02:29:26;53.80;;;26.13;;
3293;SDS011;1659;51.470;6.770;2023-02-15T02:35:11;64.40;;;28.70;;
3293;SDS011;1659;51.470;6.770;2023-02-15T02:37:46;51.47;;;25.87;;
3293;SDS011;1659;51.470;6.770;2023-02-15T02:40:23;59.50;;;27.37;;
3293;SDS011;1659;51.470;6.770;2023-02-15T02:42:59;61.33;;;27.97;;
3293;SDS011;1659;51.470;6.770;2023-02-15T02:45:30;57.37;;;27.57;;
3293;SDS011;1659;51.470;6.770;2023-02-15T02:48:03;59.00;;;26.07;;
3293;SDS011;1659;51.470;6.770;2023-02-15T02:50:33;53.60;;;26.93;;
3293;SDS011;1659;51.470;6.770;2023-02-15T02:53:00;59.43;;;26.97;;
3293;SDS011;1659;51.470;6.770;2023-02-15T02:55:28;54.87;;;26.97;;
3293;SDS011;1659;51.470;6.770;2023-02-15T02:57:59;56.03;;;29.87;;
3293;SDS011;1659;51.470;6.770;2023-02-15T03:00:31;57.63;;;27.70;;
3293;SDS011;1659;51.470;6.770;2023-02-15T03:03:04;54.60;;;27.27;;
3293;SDS011;1659;51.470;6.770;2023-02-15T03:05:36;55.27;;;27.40;;
3293;SDS011;1659;51.470;6.770;2023-02-15T03:08:07;54.03;;;26.67;;
3293;SDS011;1659;51.470;6.770;2023-02-15T03:10:35;54.10;;;27.33;;
3293;SDS011;1659;51.470;6.770;2023-02-15T03:13:03;58.40;;;28.90;;
3293;SDS011;1659;51.470;6.770;2023-02-15T03:15:31;55.03;;;28.03;;
3293;SDS011;1659;51.470;6.770;2023-02-15T03:18:15;56.87;;;27.60;;
3293;SDS011;1659;51.470;6.770;2023-02-15T03:20:43;58.63;;;28.87;;
3293;SDS011;1659;51.470;6.770;2023-02-15T03:23:12;65.13;;;28.73;;
3293;SDS011;1659;51.470;6.770;2023-02-15T03:25:42;60.37;;;28.70;;
3293;SDS011;1659;51.470;6.770;2023-02-15T03:28:13;60.77;;;30.33;;
3293;SDS011;1659;51.470;6.770;2023-02-15T03:30:45;68.53;;;28.90;;
3293;SDS011;1659;51.470;6.770;2023-02-15T03:33:18;66.60;;;30.63;;
3293;SDS011;1659;51.470;6.770;2023-02-15T03:35:49;66.53;;;32.87;;
3293;SDS011;1659;51.470;6.770;2023-02-15T03:38:23;68.57;;;31.43;;
3293;SDS011;1659;51.470;6.770;2023-02-15T03:40:55;63.90;;;29.23;;
3293;SDS011;1659;51.470;6.770;2023-02-15T03:43:37;53.40;;;29.07;;
3293;SDS011;1659;51.470;6.770;2023-02-15T03:46:11;64.60;;;32.10;;
3293;SDS011;1659;51.470;6.770;2023-02-15T03:48:45;60.20;;;28.13;;
3293;SDS011;1659;51.470;6.770;2023-02-15T03:51:17;77.77;;;31.13;;
3293;SDS011;1659;51.470;6.770;2023-02-15T03:54:03;60.13;;;29.17;;
3293;SDS011;1659;51.470;6.770;2023-02-15T03:56:33;67.17;;;31.13;;
3293;SDS011;1659;51.470;6.770;2023-02-15T03:59:00;65.83;;;30.40;;
3293;SDS011;1659;51.470;6.770;2023-02-15T04:01:46;76.63;;;31.27;;
3293;SDS011;1659;51.470;6.770;2023-02-15T04:04:26;69.93;;;30.57;;
3293;SDS011;1659;51.470;6.770;2023-02-15T04:06:57;58.67;;;29.60;;
3293;SDS011;1659;51.470;6.770;2023-02-15T04:09:24;64.50;;;31.17;;
3293;SDS011;1659;51.470;6.770;2023-02-15T04:12:08;68.87;;;31.47;;
3293;SDS011;1659;51.470;6.770;2023-02-15T04:14:34;64.33;;;29.70;;
3293;SDS011;1659;51.470;6.770;2023-02-15T04:17:19;58.80;;;29.27;;
3293;SDS011;1659;51.470;6.770;2023-02-15T04:19:46;64.10;;;31.57;;
3293;SDS011;1659;51.470;6.770;2023-02-15T04:22:31;61.30;;;30.07;;
3293;SDS011;1659;51.470;6.770;2023-02-15T04:25:14;65.63;;;32.27;;
3293;SDS011;1659;51.470;6.770;2023-02-15T04:27:42;76.27;;;32.20;;
3293;SDS011;1659;51.470;6.770;2023-02-15T04:30:10;67.00;;;29.70;;
3293;SDS011;1659;51.470;6.770;2023-02-15T04:32:38;61.10;;;28.97;;
3293;SDS011;1659;51.470;6.770;2023-02-15T04:35:06;63.03;;;31.10;;
3293;SDS011;1659;51.470;6.770;2023-02-15T04:37:34;65.93;;;31.13;;
3293;SDS011;1659;51.470;6.770;2023-02-15T04:40:00;65.97;;;29.87;;
3293;SDS011;1659;51.470;6.770;2023-02-15T04:42:27;62.60;;;30.23;;
3293;SDS011;1659;51.470;6.770;2023-02-15T04:44:54;59.53;;;27.60;;
3293;SDS011;1659;51.470;6.770;2023-02-15T04:47:21;73.10;;;31.77;;
3293;SDS011;1659;51.470;6.770;2023-02-15T04:49:48;69.90;;;31.60;;
3293;SDS011;1659;51.470;6.770;2023-02-15T04:52:16;72.53;;;31.13;;
3293;SDS011;1659;51.470;6.770;2023-02-15T04:54:43;68.00;;;30.77;;
3293;SDS011;1659;51.470;6.770;2023-02-15T04:57:09;72.67;;;30.93;;
3293;SDS011;1659;51.470;6.770;2023-02-15T04:59:36;68.93;;;32.17;;
3293;SDS011;1659;51.470;6.770;2023-02-15T05:02:03;62.17;;;30.37;;
3293;SDS011;1659;51.470;6.770;2023-02-15T05:04:29;64.07;;;31.47;;
3293;SDS011;1659;51.470;6.770;2023-02-15T05:06:56;65.63;;;29.67;;
3293;SDS011;1659;51.470;6.770;2023-02-15T05:09:24;58.17;;;29.00;;
3293;SDS011;1659;51.470;6.770;2023-02-15T05:11:50;61.33;;;30.50;;
3293;SDS011;1659;51.470;6.770;2023-02-15T05:14:17;66.87;;;32.20;;
3293;SDS011;1659;51.470;6.770;2023-02-15T05:16:43;65.30;;;32.43;;
3293;SDS011;1659;51.470;6.770;2023-02-15T05:19:10;62.60;;;29.37;;
3293;SDS011;1659;51.470;6.770;2023-02-15T05:21:37;71.00;;;30.50;;
3293;SDS011;1659;51.470;6.770;2023-02-15T05:24:03;65.47;;;30.43;;
3293;SDS011;1659;51.470;6.770;2023-02-15T05:26:51;58.67;;;29.43;;
3293;SDS011;1659;51.470;6.770;2023-02-15T05:29:32;62.03;;;29.53;;
3293;SDS011;1659;51.470;6.770;2023-02-15T05:31:58;64.47;;;29.73;;
3293;SDS011;1659;51.470;6.770;2023-02-15T05:34:25;74.43;;;30.27;;
3293;SDS011;1659;51.470;6.770;2023-02-15T05:36:51;68.10;;;31.20;;
3293;SDS011;1659;51.470;6.770;2023-02-15T05:39:18;59.93;;;29.60;;
3293;SDS011;1659;51.470;6.770;2023-02-15T05:41:44;65.30;;;30.30;;
3293;SDS011;1659;51.470;6.770;2023-02-15T05:44:12;72.33;;;33.53;;
3293;SDS011;1659;51.470;6.770;2023-02-15T05:46:39;66.00;;;33.33;;
3293;SDS011;1659;51.470;6.770;2023-02-15T05:49:05;69.13;;;31.67;;
3293;SDS011;1659;51.470;6.770;2023-02-15T05:51:32;64.23;;;30.60;;
3293;SDS011;1659;51.470;6.770;2023-02-15T05:53:58;64.10;;;29.37;;
3293;SDS011;1659;51.470;6.770;2023-02-15T05:56:25;73.60;;;34.20;;
3293;SDS011;1659;51.470;6.770;2023-02-15T05:58:52;66.33;;;31.20;;
3293;SDS011;1659;51.470;6.770;2023-02-15T06:01:20;69.63;;;31.50;;
3293;SDS011;1659;51.470;6.770;2023-02-15T06:03:47;72.33;;;32.07;;
3293;SDS011;1659;51.470;6.770;2023-02-15T06:06:14;66.17;;;31.53;;
3293;SDS011;1659;51.470;6.770;2023-02-15T06:08:41;74.70;;;32.67;;
3293;SDS011;1659;51.470;6.770;2023-02-15T06:11:08;69.83;;;31.53;;
3293;SDS011;1659;51.470;6.770;2023-02-15T06:13:35;76.70;;;31.00;;
3293;SDS011;1659;51.470;6.770;2023-02-15T06:16:01;65.23;;;31.33;;
3293;SDS011;1659;51.470;6.770;2023-02-15T06:18:29;64.27;;;30.67;;
3293;SDS011;1659;51.470;6.770;2023-02-15T06:20:56;66.97;;;32.77;;
3293;SDS011;1659;51.470;6.770;2023-02-15T06:23:24;64.93;;;30.17;;
3293;SDS011;1659;51.470;6.770;2023-02-15T06:25:51;77.60;;;32.03;;
3293;SDS011;1659;51.470;6.770;2023-02-15T06:28:17;69.17;;;31.73;;
3293;SDS011;1659;51.470;6.770;2023-02-15T06:30:44;59.03;;;31.13;;
3293;SDS011;1659;51.470;6.770;2023-02-15T06:33:10;60.77;;;29.87;;
3293;SDS011;1659;51.470;6.770;2023-02-15T06:35:38;64.53;;;31.40;;
3293;SDS011;1659;51.470;6.770;2023-02-15T06:38:04;65.97;;;30.53;;
3293;SDS011;1659;51.470;6.770;2023-02-15T06:40:31;64.87;;;30.60;;
3293;SDS011;1659;51.470;6.770;2023-02-15T06:42:57;59.20;;;29.97;;
3293;SDS011;1659;51.470;6.770;2023-02-15T06:45:24;66.67;;;29.50;;
3293;SDS011;1659;51.470;6.770;2023-02-15T06:47:50;73.77;;;33.03;;
3293;SDS011;1659;51.470;6.770;2023-02-15T06:50:17;67.90;;;31.87;;
3293;SDS011;1659;51.470;6.770;2023-02-15T06:52:45;69.57;;;30.93;;
3293;SDS011;1659;51.470;6.770;2023-02-15T06:55:12;64.50;;;29.00;;
3293;SDS011;1659;51.470;6.770;2023-02-15T06:57:38;56.30;;;29.30;;
3293;SDS011;1659;51.470;6.770;2023-02-15T07:00:05;64.20;;;29.80;;
3293;SDS011;1659;51.470;6.770;2023-02-15T07:02:33;61.43;;;28.60;;
3293;SDS011;1659;51.470;6.770;2023-02-15T07:04:59;63.40;;;29.20;;
3293;SDS011;1659;51.470;6.770;2023-02-15T07:07:26;55.47;;;30.40;;
3293;SDS011;1659;51.470;6.770;2023-02-15T07:09:54;63.43;;;29.93;;
3293;SDS011;1659;51.470;6.770;2023-02-15T07:12:20;62.80;;;29.70;;
3293;SDS011;1659;51.470;6.770;2023-02-15T07:15:05;60.73;;;29.17;;
3293;SDS011;1659;51.470;6.770;2023-02-15T07:17:32;59.33;;;26.93;;
3293;SDS011;1659;51.470;6.770;2023-02-15T07:19:59;70.83;;;30.13;;
3293;SDS011;1659;51.470;6.770;2023-02-15T07:22:26;62.47;;;30.30;;
3293;SDS011;1659;51.470;6.770;2023-02-15T07:24:54;71.50;;;29.70;;
3293;SDS011;1659;51.470;6.770;2023-02-15T07:27:21;70.50;;;32.30;;
3293;SDS011;1659;51.470;6.770;2023-02-15T07:29:48;59.10;;;31.00;;
3293;SDS011;1659;51.470;6.770;2023-02-15T07:32:14;68.50;;;29.60;;
3293;SDS011;1659;51.470;6.770;2023-02-15T07:34:41;58.40;;;28.23;;
3293;SDS011;1659;51.470;6.770;2023-02-15T07:37:07;60.03;;;28.90;;
3293;SDS011;1659;51.470;6.770;2023-02-15T07:39:34;61.27;;;30.83;;
3293;SDS011;1659;51.470;6.770;2023-02-15T07:42:01;56.27;;;27.53;;
3293;SDS011;1659;51.470;6.770;2023-02-15T07:44:28;63.27;;;29.13;;
3293;SDS011;1659;51.470;6.770;2023-02-15T07:46:55;54.87;;;28.40;;
3293;SDS011;1659;51.470;6.770;2023-02-15T07:49:21;62.70;;;31.67;;
3293;SDS011;1659;51.470;6.770;2023-02-15T07:51:48;61.93;;;28.70;;
3293;SDS011;1659;51.470;6.770;2023-02-15T07:54:14;57.80;;;27.67;;
3293;SDS011;1659;51.470;6.770;2023-02-15T07:56:41;54.93;;;24.00;;
3293;SDS011;1659;51.470;6.770;2023-02-15T07:59:09;53.23;;;27.10;;
3293;SDS011;1659;51.470;6.770;2023-02-15T08:01:36;46.30;;;25.33;;
3293;SDS011;1659;51.470;6.770;2023-02-15T08:04:04;52.70;;;27.87;;
3293;SDS011;1659;51.470;6.770;2023-02-15T08:06:34;47.60;;;25.57;;
3293;SDS011;1659;51.470;6.770;2023-02-15T08:09:02;62.00;;;27.27;;
3293;SDS011;1659;51.470;6.770;2023-02-15T08:11:30;48.43;;;20.00;;
3293;SDS011;1659;51.470;6.770;2023-02-15T08:14:01;51.93;;;25.87;;
3293;SDS011;1659;51.470;6.770;2023-02-15T08:16:31;55.97;;;26.80;;
3293;SDS011;1659;51.470;6.770;2023-02-15T08:19:00;51.80;;;26.27;;
3293;SDS011;1659;51.470;6.770;2023-02-15T08:21:29;48.67;;;25.50;;
3293;SDS011;1659;51.470;6.770;2023-02-15T08:23:56;50.37;;;26.40;;
3293;SDS011;1659;51.470;6.770;2023-02-15T08:26:23;55.83;;;22.73;;
3293;SDS011;1659;51.470;6.770;2023-02-15T08:28:51;41.73;;;23.73;;
3293;SDS011;1659;51.470;6.770;2023-02-15T08:31:17;53.13;;;25.20;;
3293;SDS011;1659;51.470;6.770;2023-02-15T08:33:46;47.20;;;23.93;;
3293;SDS011;1659;51.470;6.770;2023-02-15T08:36:14;43.13;;;23.20;;
3293;SDS011;1659;51.470;6.770;2023-02-15T08:38:42;45.77;;;24.07;;
3293;SDS011;1659;51.470;6.770;2023-02-15T08:41:10;41.07;;;24.90;;
3293;SDS011;1659;51.470;6.770;2023-02-15T08:43:38;43.70;;;23.20;;
3293;SDS011;1659;51.470;6.770;2023-02-15T08:46:05;38.00;;;22.17;;
3293;SDS011;1659;51.470;6.770;2023-02-15T08:48:32;42.27;;;23.47;;
3293;SDS011;1659;51.470;6.770;2023-02-15T08:51:03;37.93;;;21.83;;
3293;SDS011;1659;51.470;6.770;2023-02-15T08:53:30;41.50;;;23.00;;
3293;SDS011;1659;51.470;6.770;2023-02-15T08:55:57;41.03;;;23.20;;
3293;SDS011;1659;51.470;6.770;2023-02-15T08:58:24;42.63;;;23.43;;
3293;SDS011;1659;51.470;6.770;2023-02-15T09:00:51;41.70;;;22.43;;
3293;SDS011;1659;51.470;6.770;2023-02-15T09:03:18;42.47;;;22.23;;
3293;SDS011;1659;51.470;6.770;2023-02-15T09:05:44;35.57;;;21.13;;
3293;SDS011;1659;51.470;6.770;2023-02-15T09:08:12;47.97;;;22.53;;
3293;SDS011;1659;51.470;6.770;2023-02-15T09:10:39;40.27;;;20.90;;
3293;SDS011;1659;51.470;6.770;2023-02-15T09:13:05;39.83;;;23.37;;
3293;SDS011;1659;51.470;6.770;2023-02-15T09:15:32;39.40;;;22.57;;
3293;SDS011;1659;51.470;6.770;2023-02-15T09:17:58;41.80;;;23.37;;
3293;SDS011;1659;51.470;6.770;2023-02-15T09:20:29;41.07;;;21.67;;
3293;SDS011;1659;51.470;6.770;2023-02-15T09:22:55;39.10;;;22.17;;
3293;SDS011;1659;51.470;6.770;2023-02-15T09:25:23;46.67;;;25.03;;
3293;SDS011;1659;51.470;6.770;2023-02-15T09:27:50;47.87;;;23.90;;
3293;SDS011;1659;51.470;6.770;2023-02-15T09:30:16;42.63;;;24.47;;
3293;SDS011;1659;51.470;6.770;2023-02-15T09:32:43;41.63;;;23.97;;
3293;SDS011;1659;51.470;6.770;2023-02-15T09:35:11;38.30;;;22.83;;
3293;SDS011;1659;51.470;6.770;2023-02-15T09:37:37;41.20;;;22.03;;
3293;SDS011;1659;51.470;6.770;2023-02-15T09:40:04;46.00;;;22.40;;
3293;SDS011;1659;51.470;6.770;2023-02-15T09:42:40;36.13;;;22.60;;
3293;SDS011;1659;51.470;6.770;2023-02-15T09:45:17;48.33;;;25.03;;
3293;SDS011;1659;51.470;6.770;2023-02-15T09:47:56;42.53;;;23.57;;
3293;SDS011;1659;51.470;6.770;2023-02-15T09:50:40;36.87;;;21.47;;
3293;SDS011;1659;51.470;6.770;2023-02-15T09:53:20;34.97;;;21.17;;
3293;SDS011;1659;51.470;6.770;2023-02-15T09:56:05;36.43;;;22.13;;
3293;SDS011;1659;51.470;6.770;2023-02-15T09:58:41;35.07;;;20.60;;
3293;SDS011;1659;51.470;6.770;2023-02-15T10:01:15;35.97;;;21.13;;
3293;SDS011;1659;51.470;6.770;2023-02-15T10:03:54;36.57;;;21.03;;
3293;SDS011;1659;51.470;6.770;2023-02-15T10:06:38;33.33;;;21.63;;
3293;SDS011;1659;51.470;6.770;2023-02-15T10:09:25;31.83;;;19.67;;
3293;SDS011;1659;51.470;6.770;2023-02-15T10:12:15;37.07;;;21.23;;
3293;SDS011;1659;51.470;6.770;2023-02-15T10:14:56;36.10;;;20.90;;
3293;SDS011;1659;51.470;6.770;2023-02-15T10:17:38;39.80;;;21.53;;
3293;SDS011;1659;51.470;6.770;2023-02-15T10:20:17;36.30;;;20.20;;
3293;SDS011;1659;51.470;6.770;2023-02-15T10:22:58;32.33;;;20.63;;
3293;SDS011;1659;51.470;6.770;2023-02-15T10:25:35;39.03;;;21.10;;
3293;SDS011;1659;51.470;6.770;2023-02-15T10:28:15;38.63;;;21.60;;
3293;SDS011;1659;51.470;6.770;2023-02-15T10:30:47;40.80;;;21.27;;
3293;SDS011;1659;51.470;6.770;2023-02-15T10:33:32;38.53;;;22.13;;
3293;SDS011;1659;51.470;6.770;2023-02-15T10:36:07;39.70;;;19.67;;
3293;SDS011;1659;51.470;6.770;2023-02-15T10:38:47;33.43;;;19.43;;
3293;SDS011;1659;51.470;6.770;2023-02-15T10:41:27;35.37;;;20.70;;
3293;SDS011;1659;51.470;6.770;2023-02-15T10:44:06;30.80;;;18.80;;
3293;SDS011;1659;51.470;6.770;2023-02-15T10:46:59;30.37;;;19.10;;
3293;SDS011;1659;51.470;6.770;2023-02-15T10:49:48;38.47;;;20.33;;
3293;SDS011;1659;51.470;6.770;2023-02-15T10:52:32;31.43;;;19.43;;
3293;SDS011;1659;51.470;6.770;2023-02-15T10:55:09;39.83;;;21.47;;
3293;SDS011;1659;51.470;6.770;2023-02-15T10:57:45;35.57;;;20.10;;
3293;SDS011;1659;51.470;6.770;2023-02-15T11:00:22;35.00;;;20.50;;
3293;SDS011;1659;51.470;6.770;2023-02-15T11:03:04;30.97;;;19.33;;
3293;SDS011;1659;51.470;6.770;2023-02-15T11:05:45;34.97;;;20.03;;
3293;SDS011;1659;51.470;6.770;2023-02-15T11:08:25;33.33;;;19.30;;
3293;SDS011;1659;51.470;6.770;2023-02-15T11:10:57;34.70;;;20.10;;
3293;SDS011;1659;51.470;6.770;2023-02-15T11:13:27;31.30;;;19.53;;
3293;SDS011;1659;51.470;6.770;2023-02-15T11:16:00;32.63;;;17.60;;
3293;SDS011;1659;51.470;6.770;2023-02-15T11:18:32;32.50;;;19.93;;
3293;SDS011;1659;51.470;6.770;2023-02-15T11:21:03;37.53;;;20.20;;
3293;SDS011;1659;51.470;6.770;2023-02-15T11:23:33;31.97;;;18.57;;
3293;SDS011;1659;51.470;6.770;2023-02-15T11:26:09;37.87;;;20.97;;
3293;SDS011;1659;51.470;6.770;2023-02-15T11:28:42;34.10;;;19.00;;
3293;SDS011;1659;51.470;6.770;2023-02-15T11:31:13;29.53;;;18.87;;
3293;SDS011;1659;51.470;6.770;2023-02-15T11:33:45;39.20;;;22.17;;
3293;SDS011;1659;51.470;6.770;2023-02-15T11:36:17;34.97;;;19.80;;
3293;SDS011;1659;51.470;6.770;2023-02-15T11:38:49;34.33;;;20.10;;
3293;SDS011;1659;51.470;6.770;2023-02-15T11:41:22;33.03;;;19.77;;
3293;SDS011;1659;51.470;6.770;2023-02-15T11:43:54;40.90;;;21.10;;
3293;SDS011;1659;51.470;6.770;2023-02-15T11:46:25;32.07;;;20.17;;
3293;SDS011;1659;51.470;6.770;2023-02-15T11:48:53;41.30;;;21.83;;
3293;SDS011;1659;51.470;6.770;2023-02-15T11:51:20;32.90;;;18.90;;
3293;SDS011;1659;51.470;6.770;2023-02-15T11:53:48;37.93;;;19.50;;
3293;SDS011;1659;51.470;6.770;2023-02-15T11:56:16;30.93;;;20.10;;
3293;SDS011;1659;51.470;6.770;2023-02-15T11:58:45;32.70;;;19.00;;
3293;SDS011;1659;51.470;6.770;2023-02-15T12:01:19;36.53;;;19.07;;
3293;SDS011;1659;51.470;6.770;2023-02-15T12:03:52;32.23;;;19.97;;
3293;SDS011;1659;51.470;6.770;2023-02-15T12:06:25;37.90;;;20.13;;
3293;SDS011;1659;51.470;6.770;2023-02-15T12:08:59;36.33;;;19.30;;
3293;SDS011;1659;51.470;6.770;2023-02-15T12:11:31;31.63;;;20.17;;
3293;SDS011;1659;51.470;6.770;2023-02-15T12:14:12;31.63;;;19.70;;
3293;SDS011;1659;51.470;6.770;2023-02-15T12:16:45;32.53;;;18.27;;
3293;SDS011;1659;51.470;6.770;2023-02-15T12:19:36;25.57;;;17.37;;
3293;SDS011;1659;51.470;6.770;2023-02-15T12:22:18;34.23;;;19.43;;
3293;SDS011;1659;51.470;6.770;2023-02-15T12:24:58;31.93;;;18.07;;
3293;SDS011;1659;51.470;6.770;2023-02-15T12:27:29;28.27;;;17.87;;
3293;SDS011;1659;51.470;6.770;2023-02-15T12:29:59;30.77;;;19.17;;
3293;SDS011;1659;51.470;6.770;2023-02-15T12:32:31;31.40;;;18.73;;
3293;SDS011;1659;51.470;6.770;2023-02-15T12:35:02;39.23;;;19.27;;
3293;SDS011;1659;51.470;6.770;2023-02-15T12:37:36;28.80;;;17.30;;
3293;SDS011;1659;51.470;6.770;2023-02-15T12:40:18;30.77;;;19.57;;
3293;SDS011;1659;51.470;6.770;2023-02-15T12:42:46;30.77;;;17.77;;
3293;SDS011;1659;51.470;6.770;2023-02-15T12:46:23;28.70;;;17.47;;
3293;SDS011;1659;51.470;6.770;2023-02-15T12:48:41;31.70;;;18.40;;
3293;SDS011;1659;51.470;6.770;2023-02-15T12:51:12;34.67;;;18.13;;
3293;SDS011;1659;51.470;6.770;2023-02-15T12:53:43;27.30;;;19.50;;
3293;SDS011;1659;51.470;6.770;2023-02-15T12:56:10;31.10;;;19.57;;
3293;SDS011;1659;51.470;6.770;2023-02-15T12:58:37;28.80;;;18.33;;
3293;SDS011;1659;51.470;6.770;2023-02-15T13:01:11;28.03;;;18.07;;
3293;SDS011;1659;51.470;6.770;2023-02-15T13:03:51;28.63;;;18.20;;
3293;SDS011;1659;51.470;6.770;2023-02-15T13:06:30;30.90;;;17.73;;
3293;SDS011;1659;51.470;6.770;2023-02-15T13:09:05;29.57;;;18.30;;
3293;SDS011;1659;51.470;6.770;2023-02-15T13:11:37;27.27;;;17.70;;
3293;SDS011;1659;51.470;6.770;2023-02-15T13:14:16;29.87;;;18.77;;
3293;SDS011;1659;51.470;6.770;2023-02-15T13:16:54;32.07;;;19.10;;
3293;SDS011;1659;51.470;6.770;2023-02-15T13:19:36;35.03;;;19.27;;
3293;SDS011;1659;51.470;6.770;2023-02-15T13:22:10;38.00;;;19.47;;
3293;SDS011;1659;51.470;6.770;2023-02-15T13:24:48;32.03;;;19.00;;
3293;SDS011;1659;51.470;6.770;2023-02-15T13:27:28;32.20;;;19.80;;
3293;SDS011;1659;51.470;6.770;2023-02-15T13:30:02;32.10;;;17.53;;
3293;SDS011;1659;51.470;6.770;2023-02-15T13:32:37;33.23;;;18.97;;
3293;SDS011;1659;51.470;6.770;2023-02-15T13:35:09;28.07;;;17.67;;
3293;SDS011;1659;51.470;6.770;2023-02-15T13:37:48;29.83;;;18.13;;
3293;SDS011;1659;51.470;6.770;2023-02-15T13:40:36;33.10;;;17.40;;
3293;SDS011;1659;51.470;6.770;2023-02-15T13:43:12;31.00;;;18.30;;
3293;SDS011;1659;51.470;6.770;2023-02-15T13:45:54;28.90;;;18.90;;
3293;SDS011;1659;51.470;6.770;2023-02-15T13:48:28;31.20;;;18.20;;
3293;SDS011;1659;51.470;6.770;2023-02-15T13:51:05;29.00;;;17.60;;
3293;SDS011;1659;51.470;6.770;2023-02-15T13:53:48;33.17;;;18.53;;
3293;SDS011;1659;51.470;6.770;2023-02-15T13:56:28;28.87;;;17.87;;
3293;SDS011;1659;51.470;6.770;2023-02-15T13:59:16;36.47;;;18.97;;
3293;SDS011;1659;51.470;6.770;2023-02-15T14:01:57;49.20;;;20.10;;
3293;SDS011;1659;51.470;6.770;2023-02-15T14:04:39;40.20;;;20.23;;
3293;SDS011;1659;51.470;6.770;2023-02-15T14:07:33;33.53;;;19.70;;
3293;SDS011;1659;51.470;6.770;2023-02-15T14:10:21;35.40;;;18.90;;
3293;SDS011;1659;51.470;6.770;2023-02-15T14:13:01;31.63;;;18.07;;
3293;SDS011;1659;51.470;6.770;2023-02-15T14:15:45;31.50;;;19.03;;
3293;SDS011;1659;51.470;6.770;2023-02-15T14:18:18;34.40;;;19.00;;
3293;SDS011;1659;51.470;6.770;2023-02-15T14:20:54;31.90;;;19.13;;
3293;SDS011;1659;51.470;6.770;2023-02-15T14:23:33;30.80;;;18.50;;
3293;SDS011;1659;51.470;6.770;2023-02-15T14:26:11;31.90;;;19.83;;
3293;SDS011;1659;51.470;6.770;2023-02-15T14:28:49;41.73;;;20.20;;
3293;SDS011;1659;51.470;6.770;2023-02-15T14:31:25;34.67;;;19.00;;
3293;SDS011;1659;51.470;6.770;2023-02-15T14:33:56;34.77;;;19.53;;
3293;SDS011;1659;51.470;6.770;2023-02-15T14:36:24;40.80;;;19.90;;
3293;SDS011;1659;51.470;6.770;2023-02-15T14:38:56;40.37;;;20.80;;
3293;SDS011;1659;51.470;6.770;2023-02-15T14:41:36;36.20;;;18.17;;
3293;SDS011;1659;51.470;6.770;2023-02-15T14:44:08;35.80;;;18.20;;
3293;SDS011;1659;51.470;6.770;2023-02-15T14:46:42;31.20;;;18.80;;
3293;SDS011;1659;51.470;6.770;2023-02-15T14:49:15;33.37;;;18.67;;
3293;SDS011;1659;51.470;6.770;2023-02-15T14:51:55;35.80;;;19.60;;
3293;SDS011;1659;51.470;6.770;2023-02-15T14:57:26;38.47;;;19.90;;
3293;SDS011;1659;51.470;6.770;2023-02-15T14:59:56;34.30;;;19.20;;
3293;SDS011;1659;51.470;6.770;2023-02-15T15:02:25;40.80;;;19.00;;
3293;SDS011;1659;51.470;6.770;2023-02-15T15:04:56;36.30;;;17.87;;
3293;SDS011;1659;51.470;6.770;2023-02-15T15:07:27;35.73;;;17.30;;
3293;SDS011;1659;51.470;6.770;2023-02-15T15:10:03;35.03;;;18.80;;
3293;SDS011;1659;51.470;6.770;2023-02-15T15:12:42;38.07;;;19.00;;
3293;SDS011;1659;51.470;6.770;2023-02-15T15:15:13;41.73;;;18.43;;
3293;SDS011;1659;51.470;6.770;2023-02-15T15:17:59;31.37;;;17.50;;
3293;SDS011;1659;51.470;6.770;2023-02-15T15:20:37;34.00;;;17.80;;